createdAt,value
2019-02-08T00:02:09.225Z,5.10
2019-02-08T00:04:37.938Z,9.37
2019-02-08T00:07:06.269Z,8.90
2019-02-08T00:09:34.981Z,16.63
2019-02-08T00:12:03.937Z,5.20
2019-02-08T00:14:32.593Z,6.07
2019-02-08T00:17:01.256Z,2.47
2019-02-08T00:19:30.021Z,4.53
2019-02-08T00:21:58.745Z,2.43
2019-02-08T00:24:27.778Z,2.40
2019-02-08T00:26:56.504Z,2.20
2019-02-08T00:29:24.831Z,4.53
2019-02-08T00:31:53.843Z,1.90
2019-02-08T00:34:22.614Z,2.13
2019-02-08T00:36:51.314Z,1.97
2019-02-08T00:39:19.953Z,1.77
2019-02-08T00:41:49.051Z,2.23
2019-02-08T00:44:17.706Z,4.73
2019-02-08T00:46:46.359Z,5.67
2019-02-08T00:49:15.360Z,4.43
2019-02-08T00:51:43.648Z,4.33
2019-02-08T00:54:12.361Z,2.70
2019-02-08T00:56:41.043Z,2.87
2019-02-08T00:59:09.968Z,1.80
2019-02-08T01:01:38.641Z,2.80
2019-02-08T01:04:07.344Z,3.87
2019-02-08T01:06:36.002Z,1.77
2019-02-08T01:09:08.195Z,1.90
2019-02-08T01:11:36.945Z,1.87
2019-02-08T01:14:06.094Z,2.17
2019-02-08T01:16:34.825Z,2.80
2019-02-08T01:19:03.501Z,1.93
2019-02-08T01:21:32.232Z,2.90
2019-02-08T01:24:00.974Z,2.47
2019-02-08T01:26:29.629Z,2.00
2019-02-08T01:28:58.281Z,2.53
2019-02-08T01:31:27.214Z,6.67
2019-02-08T01:33:55.929Z,2.00
2019-02-08T01:36:24.289Z,2.07
2019-02-08T01:38:52.974Z,4.30
2019-02-08T01:41:21.637Z,4.03
2019-02-08T01:43:50.373Z,6.77
2019-02-08T01:46:19.021Z,3.33
2019-02-08T01:48:47.673Z,3.10
2019-02-08T01:51:16.687Z,5.30
2019-02-08T01:53:48.743Z,4.23
2019-02-08T01:56:15.733Z,3.83
2019-02-08T01:58:44.121Z,3.85
2019-02-08T02:01:12.861Z,6.03
2019-02-08T02:03:41.529Z,3.73
2019-02-08T02:06:10.180Z,2.67
2019-02-08T02:08:38.864Z,5.03
2019-02-08T02:11:07.540Z,6.40
2019-02-08T02:13:36.222Z,7.92
2019-02-08T02:16:04.867Z,4.90
2019-02-08T02:18:33.179Z,5.08
2019-02-08T02:21:01.974Z,8.10
2019-02-08T02:23:30.681Z,9.80
2019-02-08T02:25:59.341Z,2.97
2019-02-08T02:28:28.042Z,6.03
2019-02-08T02:30:56.726Z,9.60
2019-02-08T02:33:25.379Z,4.53
2019-02-08T02:35:54.115Z,3.40
2019-02-08T02:38:22.902Z,7.85
2019-02-08T02:40:51.218Z,6.53
2019-02-08T02:43:19.881Z,4.72
2019-02-08T02:45:48.551Z,7.75
2019-02-08T02:48:17.486Z,2.37
2019-02-08T02:50:46.203Z,6.00
2019-02-08T02:53:14.914Z,6.12
2019-02-08T02:55:43.597Z,3.90
2019-02-08T02:58:12.273Z,4.25
2019-02-08T03:00:44.375Z,2.62
2019-02-08T03:03:14.618Z,3.53
2019-02-08T03:05:43.285Z,5.12
2019-02-08T03:08:12.539Z,4.10
2019-02-08T03:10:41.225Z,10.30
2019-02-08T03:13:09.897Z,4.70
2019-02-08T03:15:38.555Z,7.47
2019-02-08T03:18:07.289Z,5.05
2019-02-08T03:20:35.969Z,5.75
2019-02-08T03:23:04.286Z,2.75
2019-02-08T03:25:33.034Z,3.67
2019-02-08T03:28:01.701Z,3.15
2019-02-08T03:30:48.059Z,8.15
2019-02-08T03:33:17.030Z,2.80
2019-02-08T03:35:45.722Z,4.42
2019-02-08T03:38:15.004Z,7.40
2019-02-08T03:40:43.914Z,4.72
2019-02-08T03:43:12.637Z,5.80
2019-02-08T03:45:42.486Z,5.55
2019-02-08T03:48:11.056Z,5.45
2019-02-08T03:50:39.736Z,5.75
2019-02-08T03:53:09.090Z,3.70
2019-02-08T03:55:38.837Z,2.75
2019-02-08T03:58:08.094Z,4.87
2019-02-08T04:00:58.590Z,7.08
2019-02-08T04:03:27.239Z,2.52
2019-02-08T04:05:55.925Z,7.37
2019-02-08T04:08:24.587Z,3.90
2019-02-08T04:10:53.264Z,4.25
2019-02-08T04:13:21.549Z,5.20
2019-02-08T04:15:50.325Z,3.90
2019-02-08T04:18:19.001Z,4.25
2019-02-08T04:20:47.765Z,3.98
2019-02-08T04:23:16.533Z,11.05
2019-02-08T04:25:45.209Z,12.13
2019-02-08T04:28:14.289Z,12.88
2019-02-08T04:30:42.950Z,3.67
2019-02-08T04:33:11.242Z,4.60
2019-02-08T04:35:39.915Z,4.08
2019-02-08T04:38:08.653Z,2.85
2019-02-08T04:40:37.331Z,4.10
2019-02-08T04:43:06.134Z,7.00
2019-02-08T04:45:34.828Z,9.45
2019-02-08T04:48:03.484Z,25.08
2019-02-08T04:50:32.140Z,15.98
2019-02-08T04:53:00.796Z,15.28
2019-02-08T04:55:29.097Z,10.80
2019-02-08T04:57:57.827Z,6.05
2019-02-08T05:00:28.551Z,3.95
2019-02-08T05:02:57.201Z,4.33
2019-02-08T05:05:25.941Z,2.47
2019-02-08T05:07:54.910Z,3.70
2019-02-08T05:10:25.020Z,5.20
2019-02-08T05:12:53.785Z,4.95
2019-02-08T05:15:23.208Z,7.53
2019-02-08T05:17:51.687Z,4.62
2019-02-08T05:20:21.975Z,4.97
2019-02-08T05:22:50.898Z,5.28
2019-02-08T05:25:19.926Z,9.48
2019-02-08T05:27:48.605Z,4.28
2019-02-08T05:30:28.611Z,3.87
2019-02-08T05:32:57.229Z,2.33
2019-02-08T05:35:26.023Z,5.58
2019-02-08T05:37:54.674Z,2.85
2019-02-08T05:40:22.946Z,2.20
2019-02-08T05:42:51.338Z,2.87
2019-02-08T05:45:20.103Z,7.08
2019-02-08T05:47:48.758Z,4.65
2019-02-08T05:50:21.878Z,4.30
2019-02-08T05:52:50.633Z,6.03
2019-02-08T05:55:21.049Z,8.25
2019-02-08T05:57:49.700Z,4.65
2019-02-08T06:00:31.455Z,4.87
2019-02-08T06:03:00.500Z,5.15
2019-02-08T06:05:28.780Z,5.42
2019-02-08T06:07:57.437Z,7.55
2019-02-08T06:10:26.081Z,3.90
2019-02-08T06:12:54.744Z,3.30
2019-02-08T06:15:23.432Z,9.35
2019-02-08T06:17:52.084Z,25.95
2019-02-08T06:20:20.942Z,10.20
2019-02-08T06:22:49.590Z,11.90
2019-02-08T06:25:18.417Z,12.28
2019-02-08T06:27:46.716Z,24.95
2019-02-08T06:30:17.442Z,28.65
2019-02-08T06:32:46.198Z,24.23
2019-02-08T06:35:16.221Z,15.72
2019-02-08T06:37:44.889Z,10.53
2019-02-08T06:40:15.530Z,8.85
2019-02-08T06:42:44.222Z,16.87
2019-02-08T06:45:13.770Z,26.90
2019-02-08T06:47:42.444Z,28.40
2019-02-08T06:50:11.277Z,20.35
2019-02-08T06:52:39.949Z,25.25
2019-02-08T06:55:10.901Z,21.30
2019-02-08T06:57:43.884Z,17.60
2019-02-08T07:00:33.725Z,14.28
2019-02-08T07:03:21.738Z,13.43
2019-02-08T07:06:18.424Z,15.63
2019-02-08T07:09:11.277Z,12.75
2019-02-08T07:12:04.886Z,7.25
2019-02-08T07:14:58.509Z,9.65
2019-02-08T07:17:37.024Z,8.50
2019-02-08T07:20:34.756Z,8.23
2019-02-08T07:23:20.999Z,5.33
2019-02-08T07:26:08.854Z,7.62
2019-02-08T07:29:08.714Z,5.70
2019-02-08T07:32:05.834Z,3.52
2019-02-08T07:34:55.034Z,10.63
2019-02-08T07:37:42.776Z,11.45
2019-02-08T07:40:36.977Z,9.13
2019-02-08T07:43:31.950Z,13.88
2019-02-08T07:46:21.669Z,18.23
2019-02-08T07:49:04.528Z,10.88
2019-02-08T07:51:58.510Z,9.63
2019-02-08T07:54:38.054Z,7.30
2019-02-08T07:57:13.625Z,3.45
2019-02-08T08:00:00.607Z,8.88
2019-02-08T08:03:00.709Z,7.72
2019-02-08T08:05:38.225Z,1.85
2019-02-08T08:08:29.798Z,2.30
2019-02-08T08:11:14.511Z,4.20
2019-02-08T08:13:59.680Z,1.40
2019-02-08T08:16:44.610Z,2.50
2019-02-08T08:19:21.471Z,3.17
2019-02-08T08:22:03.536Z,6.87
2019-02-08T08:24:54.962Z,2.00
2019-02-08T08:27:32.030Z,5.60
2019-02-08T08:30:35.822Z,11.40
2019-02-08T08:33:19.903Z,4.63
2019-02-08T08:36:14.556Z,2.07
2019-02-08T08:39:30.925Z,3.60
2019-02-08T08:42:31.257Z,1.90
2019-02-08T08:45:17.832Z,2.60
2019-02-08T08:48:29.777Z,2.87
2019-02-08T08:51:35.036Z,6.37
2019-02-08T08:54:31.218Z,3.80
2019-02-08T08:57:48.105Z,3.97
2019-02-08T09:00:51.719Z,7.30
2019-02-08T09:03:55.270Z,4.70
2019-02-08T09:06:58.019Z,4.23
2019-02-08T09:09:52.231Z,2.63
2019-02-08T09:12:36.381Z,4.83
2019-02-08T09:15:25.024Z,1.93
2019-02-08T09:18:30.473Z,5.87
2019-02-08T09:21:15.316Z,5.60
2019-02-08T09:24:30.218Z,3.40
2019-02-08T09:27:25.597Z,10.87
2019-02-08T09:30:20.647Z,6.43
2019-02-08T09:33:38.597Z,2.93
2019-02-08T09:36:37.538Z,2.90
2019-02-08T09:39:47.729Z,2.63
2019-02-08T09:42:45.632Z,4.00
2019-02-08T09:45:54.441Z,0.90
2019-02-08T09:49:06.928Z,6.33
2019-02-08T09:52:11.985Z,1.73
2019-02-08T09:55:21.969Z,3.37
2019-02-08T09:58:29.954Z,3.17
2019-02-08T10:01:42.530Z,4.23
2019-02-08T10:04:29.080Z,1.90
2019-02-08T10:07:22.902Z,13.23
2019-02-08T10:10:31.961Z,4.57
2019-02-08T10:13:28.319Z,1.97
2019-02-08T10:16:43.751Z,3.53
2019-02-08T10:19:33.622Z,2.00
2019-02-08T10:22:29.274Z,8.73
2019-02-08T10:25:34.425Z,24.40
2019-02-08T10:28:41.068Z,6.47
2019-02-08T10:31:39.911Z,1.40
2019-02-08T10:34:43.854Z,2.93
2019-02-08T10:38:12.368Z,1.10
2019-02-08T10:41:30.413Z,3.83
2019-02-08T10:44:30.910Z,1.60
2019-02-08T10:47:49.529Z,0.80
2019-02-08T10:50:44.950Z,3.33
2019-02-08T10:53:53.041Z,1.13
2019-02-08T10:57:01.969Z,2.30
2019-02-08T11:00:11.385Z,2.70
2019-02-08T11:03:17.410Z,1.83
2019-02-08T11:06:27.554Z,1.03
2019-02-08T11:09:32.804Z,3.37
2019-02-08T11:12:51.226Z,1.17
2019-02-08T11:15:56.373Z,0.87
2019-02-08T11:19:00.473Z,1.20
2019-02-08T11:21:29.126Z,3.43
2019-02-08T11:23:57.950Z,1.00
2019-02-08T11:26:26.766Z,1.23
2019-02-08T11:28:55.433Z,1.87
2019-02-08T11:31:24.089Z,1.13
2019-02-08T11:33:53.108Z,1.20
2019-02-08T11:36:21.774Z,2.50
2019-02-08T11:38:50.069Z,1.20
2019-02-08T11:41:19.161Z,1.50
2019-02-08T11:43:47.813Z,3.80
2019-02-08T11:46:16.469Z,2.53
2019-02-08T11:48:45.112Z,3.77
2019-02-08T11:51:14.814Z,2.30
2019-02-08T11:53:43.568Z,2.00
2019-02-08T11:56:12.228Z,3.07
2019-02-08T11:58:40.992Z,2.57
2019-02-08T12:01:09.354Z,3.13
2019-02-08T12:03:38.079Z,1.40
2019-02-08T12:06:07.210Z,3.50
2019-02-08T12:08:35.893Z,1.30
2019-02-08T12:11:04.575Z,3.40
2019-02-08T12:13:33.216Z,4.90
2019-02-08T12:16:01.921Z,2.13
2019-02-08T12:18:30.573Z,6.63
2019-02-08T12:20:58.850Z,4.47
2019-02-08T12:23:27.625Z,2.93
2019-02-08T12:25:56.279Z,0.80
2019-02-08T12:28:24.971Z,1.33
2019-02-08T12:30:53.688Z,1.63
2019-02-08T12:33:22.478Z,4.23
2019-02-08T12:35:51.224Z,7.70
2019-02-08T12:38:20.264Z,1.83
2019-02-08T12:40:49.080Z,0.93
2019-02-08T12:43:17.345Z,1.03
2019-02-08T12:45:46.005Z,0.83
2019-02-08T12:48:14.709Z,2.13
2019-02-08T12:50:43.421Z,2.50
2019-02-08T12:53:12.064Z,2.03
2019-02-08T12:55:41.169Z,2.20
2019-02-08T12:58:09.825Z,3.23
2019-02-08T13:00:38.518Z,1.40
2019-02-08T13:03:07.240Z,4.20
2019-02-08T13:05:35.527Z,2.30
2019-02-08T13:08:04.216Z,1.20
2019-02-08T13:10:32.920Z,2.10
2019-02-08T13:13:01.589Z,1.57
2019-02-08T13:15:30.242Z,2.47
2019-02-08T13:17:58.966Z,2.87
2019-02-08T13:20:27.617Z,2.30
2019-02-08T13:22:56.342Z,3.03
2019-02-08T13:25:25.014Z,1.40
2019-02-08T13:27:53.294Z,1.23
2019-02-08T13:30:24.047Z,2.93
2019-02-08T13:32:52.726Z,1.37
2019-02-08T13:35:21.380Z,1.17
2019-02-08T13:37:50.101Z,1.23
2019-02-08T13:40:19.231Z,1.43
2019-02-08T13:42:47.872Z,3.70
2019-02-08T13:45:16.548Z,1.43
2019-02-08T13:47:44.838Z,1.20
2019-02-08T13:50:16.312Z,1.23
2019-02-08T13:52:45.073Z,1.87
2019-02-08T13:55:14.665Z,0.77
2019-02-08T13:57:43.318Z,1.67
2019-02-08T14:00:15.817Z,2.30
2019-02-08T14:02:44.528Z,1.10
2019-02-08T14:05:13.190Z,2.83
2019-02-08T14:07:42.183Z,6.63
2019-02-08T14:10:12.212Z,3.27
2019-02-08T14:12:40.493Z,2.70
2019-02-08T14:15:09.257Z,1.00
2019-02-08T14:17:37.922Z,1.60
2019-02-08T14:20:08.218Z,1.87
2019-02-08T14:22:36.886Z,2.30
2019-02-08T14:25:06.688Z,1.30
2019-02-08T14:27:35.341Z,4.03
2019-02-08T14:30:04.961Z,2.60
2019-02-08T14:32:33.657Z,2.80
2019-02-08T14:35:01.937Z,1.57
2019-02-08T14:37:30.598Z,1.50
2019-02-08T14:39:59.300Z,2.80
2019-02-08T14:42:27.952Z,5.03
2019-02-08T14:44:56.767Z,5.03
2019-02-08T14:47:25.445Z,6.70
2019-02-08T14:49:54.110Z,1.80
2019-02-08T14:52:22.740Z,6.10
2019-02-08T14:54:51.030Z,3.60
2019-02-08T14:57:19.706Z,3.50
2019-02-08T14:59:48.360Z,4.90
2019-02-08T15:02:17.080Z,4.17
2019-02-08T15:04:45.755Z,4.67
2019-02-08T15:07:14.436Z,1.27
2019-02-08T15:09:43.458Z,3.77
2019-02-08T15:12:12.249Z,3.67
2019-02-08T15:14:40.906Z,9.37
2019-02-08T15:17:09.250Z,3.60
2019-02-08T15:19:37.977Z,3.43
2019-02-08T15:22:06.648Z,2.50
2019-02-08T15:24:35.344Z,2.00
2019-02-08T15:27:03.987Z,3.83
2019-02-08T15:29:32.637Z,8.10
2019-02-08T15:32:01.769Z,8.63
2019-02-08T15:34:30.427Z,6.97
2019-02-08T15:36:59.080Z,11.20
2019-02-08T15:39:27.525Z,11.13
2019-02-08T15:41:56.258Z,5.73
2019-02-08T15:44:24.915Z,8.63
2019-02-08T15:46:53.722Z,7.60
2019-02-08T15:49:22.458Z,7.40
2019-02-08T15:51:51.141Z,17.03
2019-02-08T15:54:19.905Z,7.90
2019-02-08T15:56:48.560Z,12.90
2019-02-08T15:59:16.854Z,11.63
2019-02-08T16:01:45.521Z,21.87
2019-02-08T16:04:14.253Z,18.37
2019-02-08T16:06:43.164Z,24.23
2019-02-08T16:09:12.983Z,26.73
2019-02-08T16:11:41.713Z,30.20
2019-02-08T16:14:10.389Z,43.27
2019-02-08T16:16:39.063Z,29.03
2019-02-08T16:19:07.757Z,26.07
2019-02-08T16:21:36.041Z,18.90
2019-02-08T16:24:04.773Z,19.03
2019-02-08T16:26:33.473Z,14.53
2019-02-08T16:29:02.134Z,5.70
2019-02-08T16:31:30.890Z,14.00
2019-02-08T16:33:59.558Z,68.60
2019-02-08T16:36:28.237Z,24.73
2019-02-08T16:38:57.317Z,38.07
2019-02-08T16:41:25.601Z,58.47
2019-02-08T16:43:55.613Z,32.00
2019-02-08T16:46:24.273Z,30.77
2019-02-08T16:48:52.561Z,23.80
2019-02-08T16:51:21.308Z,31.60
2019-02-08T16:53:53.599Z,27.60
2019-02-08T16:56:21.325Z,30.13
2019-02-08T16:58:50.031Z,14.97
2019-02-08T17:01:18.356Z,17.03
2019-02-08T17:03:47.089Z,30.90
2019-02-08T17:06:15.770Z,14.93
2019-02-08T17:08:44.448Z,13.90
2019-02-08T17:11:13.121Z,25.33
2019-02-08T17:13:41.940Z,64.20
2019-02-08T17:16:10.636Z,95.43
2019-02-08T17:18:39.291Z,91.00
2019-02-08T17:21:07.952Z,47.33
2019-02-08T17:23:36.347Z,41.67
2019-02-08T17:26:05.016Z,55.10
2019-02-08T17:28:33.682Z,64.80
2019-02-08T17:31:02.452Z,60.73
2019-02-08T17:33:31.236Z,50.63
2019-02-08T17:35:59.923Z,40.13
2019-02-08T17:38:28.577Z,40.37
2019-02-08T17:40:57.261Z,41.20
2019-02-08T17:43:25.617Z,45.33
2019-02-08T17:45:54.385Z,37.17
2019-02-08T17:48:23.116Z,39.03
2019-02-08T17:50:51.756Z,38.00
2019-02-08T17:53:20.455Z,41.77
2019-02-08T17:55:49.210Z,41.50
2019-02-08T17:58:17.962Z,56.37
2019-02-08T18:00:54.754Z,70.03
2019-02-08T18:03:23.116Z,57.53
2019-02-08T18:05:51.753Z,31.23
2019-02-08T18:08:20.499Z,12.30
2019-02-08T18:10:49.157Z,34.67
2019-02-08T18:13:18.219Z,79.33
2019-02-08T18:15:46.930Z,81.60
2019-02-08T18:18:20.468Z,38.97
2019-02-08T18:20:51.662Z,53.03
2019-02-08T18:23:20.338Z,50.05
2019-02-08T18:25:48.702Z,52.20
2019-02-08T18:28:17.866Z,71.37
2019-02-08T18:30:46.524Z,69.97
2019-02-08T18:33:15.233Z,89.03
2019-02-08T18:35:43.905Z,53.93
2019-02-08T18:38:12.672Z,46.50
2019-02-08T18:40:41.338Z,46.30
2019-02-08T18:43:10.165Z,52.38
2019-02-08T18:45:38.509Z,129.90
2019-02-08T18:48:07.226Z,79.12
2019-02-08T18:50:38.148Z,33.92
2019-02-08T18:53:07.006Z,28.30
2019-02-08T18:55:35.690Z,29.82
2019-02-08T18:58:04.808Z,27.52
2019-02-08T19:00:40.025Z,34.55
2019-02-08T19:03:06.594Z,39.53
2019-02-08T19:05:35.324Z,29.45
2019-02-08T19:08:04.102Z,26.02
2019-02-08T19:10:32.487Z,21.80
2019-02-08T19:13:01.330Z,17.60
2019-02-08T19:15:30.039Z,16.93
2019-02-08T19:17:59.029Z,20.97
2019-02-08T19:20:27.854Z,16.73
2019-02-08T19:22:56.517Z,24.40
2019-02-08T19:25:28.437Z,17.15
2019-02-08T19:27:57.101Z,33.30
2019-02-08T19:30:26.272Z,35.63
2019-02-08T19:32:54.936Z,42.48
2019-02-08T19:35:23.646Z,48.90
2019-02-08T19:37:52.372Z,69.15
2019-02-08T19:40:23.637Z,77.10
2019-02-08T19:42:52.343Z,94.60
2019-02-08T19:45:21.029Z,66.00
2019-02-08T19:47:49.719Z,80.80
2019-02-08T19:50:41.548Z,60.85
2019-02-08T19:53:10.478Z,42.85
2019-02-08T19:55:38.786Z,44.08
2019-02-08T19:58:08.221Z,55.00
2019-02-08T20:00:36.992Z,61.92
2019-02-08T20:03:06.161Z,37.28
2019-02-08T20:05:34.893Z,61.98
2019-02-08T20:08:03.617Z,69.03
2019-02-08T20:10:34.247Z,48.23
2019-02-08T20:13:03.018Z,66.75
2019-02-08T20:15:31.686Z,30.10
2019-02-08T20:18:00.025Z,44.63
2019-02-08T20:20:28.774Z,59.25
2019-02-08T20:22:57.558Z,39.85
2019-02-08T20:25:28.114Z,41.33
2019-02-08T20:27:57.129Z,51.13
2019-02-08T20:30:25.942Z,46.95
2019-02-08T20:32:54.653Z,37.78
2019-02-08T20:35:23.904Z,35.73
2019-02-08T20:37:52.678Z,33.48
2019-02-08T20:40:22.262Z,32.20
2019-02-08T20:42:51.174Z,20.30
2019-02-08T20:45:22.177Z,25.15
2019-02-08T20:47:50.833Z,25.10
2019-02-08T20:50:19.559Z,21.02
2019-02-08T20:52:48.202Z,30.37
2019-02-08T20:55:17.469Z,39.65
2019-02-08T20:57:46.127Z,28.62
2019-02-08T21:00:22.688Z,33.85
2019-02-08T21:02:51.512Z,17.50
2019-02-08T21:05:20.265Z,21.25
2019-02-08T21:07:48.941Z,21.48
2019-02-08T21:10:17.630Z,19.77
2019-02-08T21:12:46.288Z,23.73
2019-02-08T21:15:15.184Z,17.25
2019-02-08T21:17:43.864Z,15.48
2019-02-08T21:20:12.654Z,20.27
2019-02-08T21:22:40.936Z,15.32
2019-02-08T21:25:10.910Z,22.67
2019-02-08T21:27:39.964Z,37.70
2019-02-08T21:30:10.838Z,38.10
2019-02-08T21:32:39.582Z,37.23
2019-02-08T21:35:09.120Z,38.38
2019-02-08T21:37:37.785Z,28.10
2019-02-08T21:40:07.442Z,19.40
2019-02-08T21:42:36.163Z,18.35
2019-02-08T21:45:05.650Z,14.98
2019-02-08T21:47:34.323Z,23.80
2019-02-08T21:50:03.037Z,23.02
2019-02-08T21:52:31.777Z,28.32
2019-02-08T21:55:00.610Z,22.17
2019-02-08T21:57:29.325Z,16.00
2019-02-08T21:59:58.060Z,22.22
2019-02-08T22:02:26.727Z,29.00
2019-02-08T22:04:54.997Z,28.32
2019-02-08T22:07:23.746Z,38.63
2019-02-08T22:09:52.442Z,38.55
2019-02-08T22:12:21.285Z,38.30
2019-02-08T22:14:50.012Z,37.63
2019-02-08T22:17:18.682Z,37.73
2019-02-08T22:19:47.566Z,35.60
2019-02-08T22:22:16.361Z,54.70
2019-02-08T22:24:46.165Z,38.25
2019-02-08T22:27:14.554Z,35.30
2019-02-08T22:29:43.209Z,40.03
2019-02-08T22:32:11.876Z,48.02
2019-02-08T22:34:40.546Z,38.80
2019-02-08T22:37:10.547Z,36.63
2019-02-08T22:39:39.204Z,49.50
2019-02-08T22:42:07.873Z,45.35
2019-02-08T22:44:36.545Z,48.42
2019-02-08T22:47:05.265Z,51.77
2019-02-08T22:49:33.555Z,58.33
2019-02-08T22:52:02.214Z,53.83
2019-02-08T22:54:30.892Z,49.58
2019-02-08T22:56:59.817Z,58.25
2019-02-08T22:59:28.766Z,41.20
2019-02-08T23:01:58.557Z,40.60
2019-02-08T23:04:28.133Z,38.55
2019-02-08T23:06:56.679Z,43.63
2019-02-08T23:09:25.414Z,36.08
2019-02-08T23:11:54.169Z,31.40
2019-02-08T23:14:22.825Z,34.13
2019-02-08T23:16:51.605Z,39.23
2019-02-08T23:19:20.712Z,32.63
2019-02-08T23:21:49.374Z,38.02
2019-02-08T23:24:18.116Z,40.33
2019-02-08T23:26:46.834Z,46.45
2019-02-08T23:29:15.544Z,41.00
2019-02-08T23:31:44.282Z,44.75
2019-02-08T23:34:12.949Z,38.25
2019-02-08T23:36:41.670Z,40.58
2019-02-08T23:39:13.247Z,33.15
2019-02-08T23:41:41.994Z,33.60
2019-02-08T23:44:10.709Z,40.17
2019-02-08T23:46:39.381Z,35.75
2019-02-08T23:49:08.049Z,37.85
2019-02-08T23:51:36.316Z,39.67
2019-02-08T23:54:05.004Z,43.23
2019-02-08T23:56:33.685Z,42.25
2019-02-08T23:59:02.390Z,42.93
